Time;durP1;ratioP1;P1;durP2;ratioP2;P2;SDS_P1;SDS_P2;PMS_P1;PMS_P2;Temp;Humidity;BMP_temperature;BMP_pressure;BME280_temperature;BME280_humidity;BME280_pressure;Samples;Min_cycle;Max_cycle;Signal;HPM_P1;HPM_P2
2021/08/10 00:00:20;;;;;;;13.55;3.78;;;24.00;99.90;;;;;;4826038;29;20137;-78
2021/08/10 00:02:46;;;;;;;7.65;3.63;;;24.00;99.90;;;;;;4827767;29;20043;-79
2021/08/10 00:05:12;;;;;;;6.18;3.65;;;24.00;99.90;;;;;;4826259;29;20046;-79
2021/08/10 00:07:37;;;;;;;7.13;3.60;;;23.90;99.90;;;;;;4826612;29;20027;-79
2021/08/10 00:10:04;;;;;;;8.65;3.42;;;23.90;99.90;;;;;;4826150;29;20034;-80
2021/08/10 00:12:30;;;;;;;7.45;3.40;;;23.90;99.90;;;;;;4826132;29;20061;-79
2021/08/10 00:14:56;;;;;;;7.43;3.58;;;23.80;99.90;;;;;;4826251;29;20474;-80
2021/08/10 00:17:22;;;;;;;12.18;3.72;;;23.90;99.90;;;;;;4825171;29;20511;-80
2021/08/10 00:19:48;;;;;;;8.70;3.28;;;23.90;99.90;;;;;;4826167;29;20031;-79
2021/08/10 00:22:13;;;;;;;6.18;3.15;;;23.90;99.90;;;;;;4825642;29;20035;-78
2021/08/10 00:24:39;;;;;;;9.30;3.88;;;23.90;99.90;;;;;;4825407;29;20385;-80
2021/08/10 00:27:05;;;;;;;5.97;3.33;;;23.80;99.90;;;;;;4825874;29;20046;-80
2021/08/10 00:29:30;;;;;;;8.00;3.58;;;23.80;99.90;;;;;;4825937;29;20031;-81
2021/08/10 00:31:56;;;;;;;9.48;3.72;;;23.80;99.90;;;;;;4824718;29;20519;-80
2021/08/10 00:34:22;;;;;;;10.88;3.95;;;23.80;99.90;;;;;;4825940;29;20036;-79
2021/08/10 00:36:47;;;;;;;8.07;3.85;;;23.70;99.90;;;;;;4826210;29;20034;-78
2021/08/10 00:39:14;;;;;;;6.97;3.33;;;23.80;99.90;;;;;;4825746;29;20060;-79
2021/08/10 00:41:40;;;;;;;10.77;3.78;;;23.70;99.90;;;;;;4825891;29;20038;-79
2021/08/10 00:44:06;;;;;;;6.28;3.22;;;23.70;99.90;;;;;;4825731;29;20065;-80
2021/08/10 00:46:32;;;;;;;6.00;3.42;;;23.70;99.90;;;;;;4825585;29;20046;-79
2021/08/10 00:48:57;;;;;;;5.72;3.30;;;23.70;99.90;;;;;;4825657;29;20031;-79
2021/08/10 00:51:25;;;;;;;7.65;4.13;;;23.70;99.90;;;;;;4825640;29;20117;-79
2021/08/10 00:53:51;;;;;;;7.00;3.28;;;23.70;99.90;;;;;;4825480;29;20091;-81
2021/08/10 00:56:18;;;;;;;12.25;3.50;;;23.70;99.90;;;;;;4825616;29;20058;-78
2021/08/10 00:58:43;;;;;;;13.23;3.70;;;23.70;99.90;;;;;;4825611;29;20033;-81
2021/08/10 01:01:09;;;;;;;8.43;3.55;;;23.70;99.90;;;;;;4825599;29;20496;-78
2021/08/10 01:03:35;;;;;;;10.77;3.45;;;23.60;99.90;;;;;;4826009;29;20403;-79
2021/08/10 01:06:24;;;;;;;10.35;3.90;;;23.60;99.90;;;;;;4825235;29;20401;-79
2021/08/10 01:09:02;;;;;;;6.43;3.13;;;23.60;99.90;;;;;;4825523;29;20050;-79
2021/08/10 01:11:45;;;;;;;7.80;3.50;;;23.60;99.90;;;;;;4823938;29;20111;-79
2021/08/10 01:14:33;;;;;;;10.13;3.30;;;23.70;99.90;;;;;;4824077;29;20158;-79
2021/08/10 01:17:01;;;;;;;11.00;3.33;;;23.70;99.90;;;;;;4825758;29;20424;-79
2021/08/10 01:19:42;;;;;;;4.97;3.08;;;23.70;99.90;;;;;;4825265;29;20034;-79
2021/08/10 01:22:09;;;;;;;5.50;3.05;;;23.70;99.90;;;;;;4825224;29;20046;-79
2021/08/10 01:24:44;;;;;;;8.82;3.47;;;23.80;99.90;;;;;;4825046;29;20395;-78
2021/08/10 01:27:47;;;;;;;7.32;3.42;;;23.70;99.90;;;;;;4825220;29;20102;-79
2021/08/10 01:30:17;;;;;;;6.90;3.70;;;23.80;99.90;;;;;;4824959;29;20046;-78
2021/08/10 01:32:46;;;;;;;6.25;3.08;;;23.80;99.90;;;;;;4825205;29;20377;-78
2021/08/10 01:35:13;;;;;;;5.78;3.42;;;23.80;99.90;;;;;;4825121;29;20034;-79
2021/08/10 01:37:40;;;;;;;7.68;3.22;;;23.70;99.90;;;;;;4823890;29;20406;-81
2021/08/10 01:40:09;;;;;;;6.22;3.67;;;23.80;99.90;;;;;;4825119;29;20503;-79
2021/08/10 01:42:38;;;;;;;9.75;3.60;;;23.80;99.90;;;;;;4824733;29;20034;-79
2021/08/10 01:45:05;;;;;;;8.55;3.10;;;23.80;99.90;;;;;;4824722;29;20117;-79
2021/08/10 01:47:32;;;;;;;3.88;3.03;;;23.80;99.90;;;;;;4824560;29;20504;-80
2021/08/10 01:49:59;;;;;;;9.13;3.10;;;23.80;99.90;;;;;;4825111;29;20042;-78
2021/08/10 01:52:26;;;;;;;8.13;3.42;;;23.80;99.90;;;;;;4824965;29;20034;-78
2021/08/10 01:54:54;;;;;;;15.07;3.13;;;23.80;99.90;;;;;;4824724;29;20044;-79
2021/08/10 01:57:20;;;;;;;3.45;2.85;;;23.90;99.90;;;;;;4824501;29;20035;-78
2021/08/10 01:59:49;;;;;;;13.70;3.55;;;23.90;99.90;;;;;;4824493;29;20075;-79
2021/08/10 02:02:15;;;;;;;9.88;3.67;;;23.90;99.90;;;;;;4823417;29;20035;-79
2021/08/10 02:04:44;;;;;;;9.43;3.35;;;23.90;99.90;;;;;;4824566;29;20457;-79
2021/08/10 02:07:10;;;;;;;4.80;2.70;;;23.90;99.90;;;;;;4824855;29;20077;-79
2021/08/10 02:09:38;;;;;;;9.38;3.50;;;23.90;99.90;;;;;;4823287;29;20117;-79
2021/08/10 02:12:05;;;;;;;6.35;3.45;;;23.90;99.90;;;;;;4824262;29;20042;-79
2021/08/10 02:14:32;;;;;;;5.07;2.75;;;24.00;99.90;;;;;;4824523;29;20044;-79
2021/08/10 02:17:02;;;;;;;7.78;3.25;;;23.90;99.90;;;;;;4823400;29;20171;-78
2021/08/10 02:19:29;;;;;;;4.43;2.80;;;23.90;99.90;;;;;;4824671;29;20034;-79
2021/08/10 02:22:05;;;;;;;5.03;2.92;;;23.90;99.90;;;;;;4824447;29;20030;-78
2021/08/10 02:24:59;;;;;;;6.25;3.13;;;23.90;99.90;;;;;;4824751;29;20492;-78
2021/08/10 02:27:38;;;;;;;9.52;3.08;;;23.90;99.90;;;;;;4824543;29;20045;-79
2021/08/10 02:30:09;;;;;;;7.97;2.88;;;23.90;99.90;;;;;;4824575;29;20484;-80
2021/08/10 02:32:37;;;;;;;10.20;3.83;;;24.00;99.90;;;;;;4823274;29;20381;-79
2021/08/10 02:35:04;;;;;;;9.05;3.03;;;24.00;99.90;;;;;;4824242;29;20034;-79
2021/08/10 02:37:32;;;;;;;5.18;2.90;;;23.90;99.90;;;;;;4824369;29;20027;-79
2021/08/10 02:40:02;;;;;;;8.02;2.90;;;23.90;99.90;;;;;;4824623;29;20094;-78
2021/08/10 02:42:28;;;;;;;5.43;3.05;;;23.90;99.90;;;;;;4826580;29;20045;-79
2021/08/10 02:44:57;;;;;;;11.13;3.30;;;23.90;99.90;;;;;;4824239;29;20068;-78
2021/08/10 02:47:25;;;;;;;9.13;3.30;;;23.90;99.90;;;;;;4824273;29;20042;-82
2021/08/10 02:49:50;;;;;;;5.55;3.15;;;23.90;99.90;;;;;;4827046;29;20034;-80
2021/08/10 02:52:16;;;;;;;6.95;2.90;;;23.90;99.90;;;;;;4827633;29;20383;-81
2021/08/10 02:54:42;;;;;;;6.80;3.15;;;23.90;99.90;;;;;;4826292;29;20034;-80
2021/08/10 02:57:23;;;;;;;8.18;3.17;;;23.90;99.90;;;;;;4827598;29;20069;-80
2021/08/10 02:59:52;;;;;;;5.15;3.03;;;23.90;99.90;;;;;;4827383;29;20119;-79
2021/08/10 03:02:24;;;;;;;7.90;2.58;;;23.90;99.90;;;;;;4827320;29;20038;-79
2021/08/10 03:05:02;;;;;;;;;;;23.90;99.90;;;;;;4827997;29;20034;-79
2021/08/10 03:07:31;;;;;;;5.57;2.70;;;23.90;99.90;;;;;;4827433;29;19909;-78
2021/08/10 03:10:00;;;;;;;9.13;2.95;;;23.90;99.90;;;;;;4827182;29;20480;-79
2021/08/10 03:12:31;;;;;;;14.38;3.28;;;23.90;99.90;;;;;;4827226;29;20049;-79
2021/08/10 03:14:58;;;;;;;7.85;2.78;;;23.90;99.90;;;;;;4826041;29;20511;-79
2021/08/10 03:17:29;;;;;;;6.20;3.13;;;23.80;99.90;;;;;;4827272;29;20074;-81
2021/08/10 03:19:57;;;;;;;5.65;2.78;;;23.80;99.90;;;;;;4827226;29;20030;-79
2021/08/10 03:22:24;;;;;;;6.68;3.40;;;23.80;99.90;;;;;;4827217;29;20117;-79
2021/08/10 03:24:52;;;;;;;7.50;2.58;;;23.80;99.90;;;;;;4827106;29;20476;-78
2021/08/10 03:27:18;;;;;;;4.05;2.85;;;23.80;99.90;;;;;;4826844;29;20047;-79
2021/08/10 03:29:46;;;;;;;7.38;3.22;;;23.80;99.90;;;;;;4826835;29;20041;-79
2021/08/10 03:32:14;;;;;;;7.07;3.17;;;23.80;99.90;;;;;;4826973;29;20108;-78
2021/08/10 03:34:41;;;;;;;6.43;2.78;;;23.80;99.90;;;;;;4826917;29;20045;-79
2021/08/10 03:37:07;;;;;;;8.73;3.42;;;23.80;99.90;;;;;;4826772;29;20053;-79
2021/08/10 03:39:33;;;;;;;5.20;3.20;;;23.70;99.90;;;;;;4826659;29;20042;-79
2021/08/10 03:42:01;;;;;;;5.30;3.20;;;23.70;99.90;;;;;;4826864;29;20038;-78
2021/08/10 03:44:27;;;;;;;7.43;3.35;;;23.70;99.90;;;;;;4826657;29;20035;-79
2021/08/10 03:46:53;;;;;;;7.20;3.03;;;23.70;99.90;;;;;;4826677;29;20488;-79
2021/08/10 03:49:22;;;;;;;9.98;3.03;;;23.70;99.90;;;;;;4826577;29;20172;-79
2021/08/10 03:51:48;;;;;;;9.45;3.53;;;23.70;99.90;;;;;;4826494;29;20041;-78
2021/08/10 03:54:14;;;;;;;5.70;3.00;;;23.70;99.90;;;;;;4826509;29;20038;-79
2021/08/10 03:56:41;;;;;;;6.88;3.30;;;23.60;99.90;;;;;;4826797;29;20041;-78
2021/08/10 03:59:09;;;;;;;8.73;3.67;;;23.60;99.90;;;;;;4827035;29;20058;-79
2021/08/10 04:01:37;;;;;;;5.82;3.58;;;23.60;99.90;;;;;;4839601;29;20389;-79
2021/08/10 04:04:03;;;;;;;7.10;3.55;;;23.50;99.90;;;;;;4840664;29;20039;-81
2021/08/10 04:06:32;;;;;;;7.53;3.17;;;23.50;99.90;;;;;;4826550;29;20484;-79
2021/08/10 04:09:01;;;;;;;9.32;2.97;;;23.50;99.90;;;;;;4826396;29;20471;-79
2021/08/10 04:11:27;;;;;;;5.70;3.08;;;23.60;99.90;;;;;;4826355;29;20112;-79
2021/08/10 04:13:52;;;;;;;8.27;3.10;;;23.60;99.90;;;;;;4826237;29;20035;-78
2021/08/10 04:16:19;;;;;;;11.10;3.53;;;23.60;99.90;;;;;;4826379;29;20038;-78
2021/08/10 04:18:46;;;;;;;9.20;3.00;;;23.60;99.90;;;;;;4826239;29;20571;-79
2021/08/10 04:21:12;;;;;;;5.25;2.85;;;23.70;99.90;;;;;;4826058;29;20113;-79
2021/08/10 04:23:38;;;;;;;3.67;2.70;;;23.70;99.90;;;;;;4840128;29;20130;-79
2021/08/10 04:26:04;;;;;;;9.48;3.15;;;23.70;99.90;;;;;;4826301;29;20103;-79
2021/08/10 04:28:29;;;;;;;10.00;3.50;;;23.80;99.90;;;;;;4826257;29;20042;-79
2021/08/10 04:30:55;;;;;;;8.35;3.15;;;23.90;99.90;;;;;;4826044;29;20113;-79
2021/08/10 04:33:21;;;;;;;10.68;3.45;;;24.00;99.90;;;;;;4825838;29;20030;-79
2021/08/10 04:35:46;;;;;;;6.47;3.25;;;24.00;99.90;;;;;;4826000;29;20074;-79
2021/08/10 04:38:12;;;;;;;7.75;3.03;;;24.10;99.90;;;;;;4825944;29;20492;-78
2021/08/10 04:40:38;;;;;;;10.82;3.20;;;24.10;99.90;;;;;;4825711;29;20138;-79
2021/08/10 04:43:04;;;;;;;6.90;3.38;;;24.10;99.90;;;;;;4826121;29;20039;-79
2021/08/10 04:45:29;;;;;;;7.63;3.35;;;24.10;99.90;;;;;;4825624;29;20084;-79
2021/08/10 04:47:55;;;;;;;18.23;3.90;;;24.10;99.90;;;;;;4825914;29;20511;-78
2021/08/10 04:50:22;;;;;;;13.85;3.63;;;24.20;99.90;;;;;;4826201;29;20035;-79
2021/08/10 04:52:47;;;;;;;10.55;4.60;;;24.20;99.90;;;;;;4825656;29;20114;-79
2021/08/10 04:55:13;;;;;;;11.27;3.90;;;24.30;99.90;;;;;;4825825;29;20079;-81
2021/08/10 04:57:39;;;;;;;10.85;3.70;;;24.50;99.90;;;;;;4825931;29;20515;-79
2021/08/10 05:00:06;;;;;;;9.55;3.42;;;24.70;99.90;;;;;;4825370;29;20046;-79
2021/08/10 05:02:32;;;;;;;12.25;3.38;;;25.00;99.90;;;;;;4825735;29;20042;-81
2021/08/10 05:04:57;;;;;;;14.35;3.88;;;25.30;99.90;;;;;;4825500;29;20034;-80
2021/08/10 05:07:23;;;;;;;17.35;3.67;;;25.60;99.90;;;;;;4824628;29;20067;-80
2021/08/10 05:09:49;;;;;;;14.30;3.97;;;25.90;99.90;;;;;;4825702;29;20445;-80
2021/08/10 05:12:14;;;;;;;12.25;3.10;;;26.20;99.90;;;;;;4825344;29;20038;-81
2021/08/10 05:14:40;;;;;;;13.95;3.75;;;26.60;99.90;;;;;;4824583;29;20038;-79
2021/08/10 05:17:06;;;;;;;20.70;3.53;;;27.00;99.90;;;;;;4826056;29;20096;-80
2021/08/10 05:19:32;;;;;;;11.35;3.85;;;27.40;99.90;;;;;;4828107;29;20034;-81
2021/08/10 05:21:58;;;;;;;9.18;3.55;;;28.20;99.90;;;;;;4826454;29;20041;-81
2021/08/10 05:24:23;;;;;;;8.95;4.03;;;29.70;98.90;;;;;;4826034;29;20114;-82
2021/08/10 05:26:50;;;;;;;8.23;5.15;;;31.40;96.80;;;;;;4825141;29;20047;-82
2021/08/10 05:29:16;;;;;;;14.43;7.65;;;33.00;94.50;;;;;;4825370;29;20066;-83
2021/08/10 05:31:42;;;;;;;15.15;7.97;;;34.30;92.60;;;;;;4825313;29;20065;-81
2021/08/10 05:34:08;;;;;;;14.68;8.07;;;35.40;91.20;;;;;;4825575;29;20031;-82
2021/08/10 05:36:33;;;;;;;19.00;10.10;;;36.30;90.10;;;;;;4825240;29;20045;-82
2021/08/10 05:38:59;;;;;;;25.02;14.43;;;37.20;88.10;;;;;;4825435;29;20499;-82
2021/08/10 05:41:25;;;;;;;24.02;14.35;;;38.00;84.80;;;;;;4825388;29;20041;-82
2021/08/10 05:43:51;;;;;;;22.25;12.27;;;38.60;83.10;;;;;;4825249;29;20039;-82
2021/08/10 05:46:17;;;;;;;21.08;11.10;;;38.90;82.10;;;;;;4825581;29;20050;-82
2021/08/10 05:48:42;;;;;;;17.13;9.32;;;39.30;81.40;;;;;;4825242;29;20030;-81
2021/08/10 05:51:08;;;;;;;17.17;5.82;;;39.80;80.70;;;;;;4825285;29;20062;-82
2021/08/10 05:53:35;;;;;;;19.20;7.38;;;40.20;78.50;;;;;;4825609;29;20031;-82
2021/08/10 05:56:01;;;;;;;14.02;6.32;;;40.30;78.00;;;;;;4825199;29;20113;-81
2021/08/10 05:58:27;;;;;;;19.75;6.97;;;40.60;77.60;;;;;;4825017;29;20042;-81
2021/08/10 06:00:54;;;;;;;9.48;4.78;;;41.00;76.80;;;;;;4824967;29;20107;-80
2021/08/10 06:03:20;;;;;;;10.02;4.20;;;41.10;76.40;;;;;;4825148;29;20043;-81
2021/08/10 06:05:46;;;;;;;10.48;4.20;;;41.20;76.20;;;;;;4825137;29;20091;-82
2021/08/10 06:08:12;;;;;;;8.30;3.08;;;41.20;76.20;;;;;;4824933;29;20039;-80
2021/08/10 06:10:38;;;;;;;9.55;3.13;;;41.00;75.80;;;;;;4824806;29;20038;-80
2021/08/10 06:13:04;;;;;;;8.88;3.45;;;40.40;76.60;;;;;;4824778;29;20395;-80
2021/08/10 06:15:30;;;;;;;5.22;2.55;;;39.90;77.40;;;;;;4823312;29;20043;-81
2021/08/10 06:17:56;;;;;;;8.00;2.42;;;40.10;78.10;;;;;;4824384;29;20027;-81
2021/08/10 06:20:22;;;;;;;7.90;2.20;;;40.00;78.00;;;;;;4824006;29;20042;-81
2021/08/10 06:22:48;;;;;;;7.68;2.30;;;39.70;78.10;;;;;;4823900;29;20030;-81
2021/08/10 06:25:14;;;;;;;9.95;2.50;;;38.90;79.40;;;;;;4824228;29;20543;-82
2021/08/10 06:27:40;;;;;;;5.05;2.10;;;38.50;80.60;;;;;;4824585;29;20035;-81
2021/08/10 06:30:08;;;;;;;8.07;2.90;;;38.90;80.30;;;;;;4824340;29;20069;-81
2021/08/10 06:32:34;;;;;;;5.85;2.25;;;39.40;79.60;;;;;;4824265;29;20106;-82
2021/08/10 06:34:59;;;;;;;7.60;2.53;;;40.10;78.80;;;;;;4824193;29;20095;-81
2021/08/10 06:37:25;;;;;;;5.57;2.17;;;40.20;78.60;;;;;;4824369;29;20053;-81
2021/08/10 06:39:51;;;;;;;7.40;2.10;;;39.90;78.90;;;;;;4824297;29;20034;-82
2021/08/10 06:42:21;;;;;;;5.47;1.88;;;39.80;78.00;;;;;;4824192;29;20049;-80
2021/08/10 06:44:47;;;;;;;12.83;2.37;;;39.40;78.90;;;;;;4824188;29;20046;-80
2021/08/10 06:47:14;;;;;;;7.05;2.08;;;39.30;79.60;;;;;;4824528;29;20076;-82
2021/08/10 06:49:39;;;;;;;7.05;1.90;;;39.60;79.20;;;;;;4824259;29;20039;-80
2021/08/10 06:52:07;;;;;;;9.75;2.78;;;39.80;78.90;;;;;;4824262;29;20109;-82
2021/08/10 06:54:33;;;;;;;8.30;2.53;;;40.10;79.10;;;;;;4822881;29;20079;-81
2021/08/10 06:57:06;;;;;;;5.10;2.00;;;40.50;78.50;;;;;;4824344;29;20038;-82
2021/08/10 06:59:35;;;;;;;4.80;2.22;;;40.80;77.70;;;;;;4823931;29;20073;-81
2021/08/10 07:02:02;;;;;;;4.95;1.83;;;41.10;77.70;;;;;;4822919;29;20408;-81
2021/08/10 07:04:28;;;;;;;6.57;1.95;;;41.20;77.00;;;;;;4824128;29;20035;-82
2021/08/10 07:06:54;;;;;;;4.43;2.25;;;41.20;77.20;;;;;;4824036;29;20046;-82
2021/08/10 07:09:21;;;;;;;9.27;2.00;;;42.00;77.10;;;;;;4824355;29;20389;-81
2021/08/10 07:11:48;;;;;;;4.85;2.00;;;42.10;75.60;;;;;;4823850;29;20082;-82
2021/08/10 07:14:13;;;;;;;3.10;1.80;;;42.10;76.10;;;;;;4823985;29;20035;-81
2021/08/10 07:16:40;;;;;;;14.73;2.80;;;41.70;75.80;;;;;;4823975;29;20495;-81
2021/08/10 07:19:06;;;;;;;3.25;1.75;;;41.10;76.80;;;;;;4824245;29;20046;-80
2021/08/10 07:21:32;;;;;;;9.93;2.88;;;41.20;77.10;;;;;;4823743;29;20062;-83
2021/08/10 07:23:58;;;;;;;6.18;1.90;;;41.70;76.70;;;;;;4823698;29;20115;-81
2021/08/10 07:26:24;;;;;;;3.22;1.83;;;42.60;76.30;;;;;;4824198;29;20074;-82
2021/08/10 07:28:50;;;;;;;3.72;1.80;;;42.90;73.70;;;;;;4823793;29;20034;-82
2021/08/10 07:31:15;;;;;;;6.30;1.88;;;43.20;73.50;;;;;;4824085;29;20034;-81
2021/08/10 07:33:41;;;;;;;5.38;1.98;;;43.70;72.90;;;;;;4823738;29;20090;-82
2021/08/10 07:36:07;;;;;;;7.68;1.80;;;43.90;72.20;;;;;;4826749;29;20384;-81
2021/08/10 07:38:32;;;;;;;10.80;1.90;;;44.00;71.30;;;;;;4827160;29;20037;-81
2021/08/10 07:40:59;;;;;;;9.10;2.10;;;43.80;71.40;;;;;;4826755;29;20039;-81
2021/08/10 07:43:24;;;;;;;3.13;1.50;;;43.90;71.80;;;;;;4825658;29;20034;-82
2021/08/10 07:45:50;;;;;;;2.85;1.80;;;44.10;71.30;;;;;;4826724;29;20130;-82
2021/08/10 07:48:16;;;;;;;2.03;1.50;;;44.70;70.40;;;;;;4826913;29;20117;-81
2021/08/10 07:50:43;;;;;;;7.88;2.15;;;45.10;69.30;;;;;;4826617;29;20136;-82
2021/08/10 07:53:09;;;;;;;9.45;2.03;;;45.40;69.20;;;;;;4826748;29;20030;-82
2021/08/10 07:55:36;;;;;;;9.52;2.00;;;;;;;;;;4826842;29;20035;-82
2021/08/10 07:58:02;;;;;;;10.63;2.00;;;46.40;67.00;;;;;;4826993;29;20122;-80
2021/08/10 08:00:27;;;;;;;4.95;2.47;;;46.60;67.50;;;;;;4828392;29;20104;-81
2021/08/10 08:02:53;;;;;;;8.93;2.00;;;46.60;66.20;;;;;;4826635;29;20094;-81
2021/08/10 08:05:19;;;;;;;4.78;1.85;;;46.70;66.20;;;;;;4826573;29;20038;-81
2021/08/10 08:07:44;;;;;;;8.43;1.98;;;46.80;65.60;;;;;;4810144;29;20403;-83
2021/08/10 08:10:11;;;;;;;7.28;1.77;;;46.70;65.50;;;;;;4826394;29;20026;-82
2021/08/10 08:12:37;;;;;;;7.00;2.45;;;46.20;66.00;;;;;;4826389;29;20034;-82
2021/08/10 08:15:03;;;;;;;14.85;2.13;;;46.20;66.70;;;;;;4826161;29;20076;-81
2021/08/10 08:17:29;;;;;;;7.78;2.08;;;46.40;65.90;;;;;;4826576;29;20072;-82
2021/08/10 08:19:55;;;;;;;12.77;2.00;;;46.20;66.30;;;;;;4826319;29;20127;-82
2021/08/10 08:22:20;;;;;;;13.32;2.25;;;46.00;66.40;;;;;;4826646;29;20042;-83
2021/08/10 08:24:46;;;;;;;4.15;1.80;;;45.90;66.10;;;;;;4826084;29;20044;-81
2021/08/10 08:27:12;;;;;;;7.75;1.88;;;45.40;67.00;;;;;;4826098;29;20042;-83
2021/08/10 08:29:38;;;;;;;5.40;2.17;;;44.40;69.00;;;;;;4826201;29;20053;-81
2021/08/10 08:32:06;;;;;;;6.15;2.70;;;43.40;69.50;;;;;;4826218;29;20038;-83
2021/08/10 08:34:32;;;;;;;12.65;3.13;;;42.80;70.40;;;;;;4825790;29;20113;-82
2021/08/10 08:36:58;;;;;;;7.05;2.40;;;42.30;70.70;;;;;;4826186;29;20137;-82
2021/08/10 08:39:23;;;;;;;6.18;3.05;;;41.80;71.60;;;;;;4826157;29;20046;-82
2021/08/10 08:41:49;;;;;;;6.03;2.42;;;41.50;72.50;;;;;;4825849;29;20036;-82
2021/08/10 08:44:16;;;;;;;5.88;2.40;;;41.10;73.20;;;;;;4824614;29;20035;-83
2021/08/10 08:46:44;;;;;;;11.27;2.72;;;41.00;73.80;;;;;;4825150;29;20043;-81
2021/08/10 08:49:12;;;;;;;5.53;2.78;;;40.90;74.40;;;;;;4825019;29;20031;-82
2021/08/10 08:51:40;;;;;;;10.02;3.20;;;40.60;75.70;;;;;;4825541;29;20365;-80
2021/08/10 08:54:07;;;;;;;8.68;3.47;;;39.80;77.30;;;;;;4824640;29;20034;-80
2021/08/10 08:56:33;;;;;;;8.45;3.50;;;39.00;79.10;;;;;;4825479;29;20050;-80
2021/08/10 08:58:59;;;;;;;8.88;3.20;;;38.10;81.00;;;;;;4825046;29;20038;-82
2021/08/10 09:01:24;;;;;;;9.02;3.15;;;37.50;82.60;;;;;;4825698;29;20151;-81
2021/08/10 09:03:50;;;;;;;6.45;3.00;;;37.30;82.50;;;;;;4825514;29;20049;-80
2021/08/10 09:06:17;;;;;;;9.45;2.88;;;37.40;82.70;;;;;;4823862;29;20053;-79
2021/08/10 09:08:43;;;;;;;9.90;3.08;;;37.50;82.40;;;;;;4825360;29;20038;-79
2021/08/10 09:11:16;;;;;;;8.93;3.03;;;37.40;81.60;;;;;;4825331;29;20480;-82
2021/08/10 09:13:56;;;;;;;9.75;3.20;;;37.20;82.30;;;;;;4825612;29;20495;-79
2021/08/10 09:16:21;;;;;;;5.70;3.27;;;37.30;83.20;;;;;;4825335;29;20035;-78
2021/08/10 09:18:47;;;;;;;12.18;3.72;;;36.90;83.80;;;;;;4825189;29;20129;-79
2021/08/10 09:21:17;;;;;;;11.68;3.22;;;36.90;83.70;;;;;;4825196;29;20074;-79
2021/08/10 09:23:50;;;;;;;10.18;3.50;;;36.90;83.60;;;;;;4825116;29;20058;-79
2021/08/10 09:26:18;;;;;;;8.40;3.85;;;37.00;83.90;;;;;;4824837;29;20077;-80
2021/08/10 09:28:44;;;;;;;10.95;3.60;;;36.70;85.30;;;;;;4823867;29;20044;-81
2021/08/10 09:31:30;;;;;;;15.55;3.97;;;36.60;85.50;;;;;;4825050;29;20073;-79
2021/08/10 09:33:58;;;;;;;8.60;3.38;;;36.40;86.50;;;;;;4824779;29;20030;-80
2021/08/10 09:36:25;;;;;;;8.85;3.63;;;36.10;86.60;;;;;;4824931;29;20090;-80
2021/08/10 09:38:50;;;;;;;5.47;3.25;;;35.90;86.90;;;;;;4824660;29;20449;-79
2021/08/10 09:41:16;;;;;;;9.25;4.30;;;35.70;87.40;;;;;;4825113;29;20041;-79
2021/08/10 09:43:43;;;;;;;8.32;3.33;;;35.50;87.90;;;;;;4824884;29;20064;-79
2021/08/10 09:46:22;;;;;;;5.55;3.30;;;35.40;87.80;;;;;;4825179;29;20085;-81
2021/08/10 09:48:57;;;;;;;6.97;3.58;;;35.30;86.90;;;;;;4823582;29;20050;-81
2021/08/10 09:51:31;;;;;;;15.52;3.58;;;35.30;86.10;;;;;;4825032;29;20038;-80
2021/08/10 09:54:05;;;;;;;6.63;3.58;;;35.30;85.10;;;;;;4824845;29;20038;-80
2021/08/10 09:56:38;;;;;;;9.23;3.35;;;35.40;85.40;;;;;;4824581;29;20026;-79
2021/08/10 09:59:04;;;;;;;15.23;3.40;;;35.40;84.90;;;;;;4822203;29;20089;-80
2021/08/10 10:01:36;;;;;;;13.18;4.40;;;35.40;84.60;;;;;;4824417;29;20037;-80
2021/08/10 10:04:21;;;;;;;6.82;3.00;;;35.40;84.50;;;;;;4824010;29;20522;-80
2021/08/10 10:06:49;;;;;;;8.20;3.60;;;35.30;84.50;;;;;;4822240;29;20082;-79
2021/08/10 10:09:15;;;;;;;11.55;3.40;;;35.10;84.80;;;;;;4823444;29;20031;-79
2021/08/10 10:11:44;;;;;;;10.05;2.80;;;35.00;84.80;;;;;;4823632;29;20038;-80
2021/08/10 10:14:11;;;;;;;7.80;3.00;;;34.90;85.10;;;;;;4823449;29;20064;-80
2021/08/10 10:16:41;;;;;;;9.05;2.88;;;34.80;84.20;;;;;;4823225;29;20124;-79
2021/08/10 10:19:11;;;;;;;9.20;3.00;;;34.70;84.80;;;;;;4823265;29;20514;-79
2021/08/10 10:21:47;;;;;;;7.68;2.53;;;34.60;85.40;;;;;;4823446;29;20054;-79
2021/08/10 10:24:14;;;;;;;8.15;3.05;;;34.50;86.40;;;;;;4823233;29;20121;-78
2021/08/10 10:26:44;;;;;;;11.57;2.83;;;34.60;85.90;;;;;;4823181;29;20044;-78
2021/08/10 10:29:13;;;;;;;8.47;3.13;;;34.60;86.70;;;;;;4822292;29;20462;-79
2021/08/10 10:31:40;;;;;;;7.07;3.20;;;34.60;86.70;;;;;;4823481;29;20070;-79
2021/08/10 10:34:07;;;;;;;6.97;2.80;;;34.70;86.30;;;;;;4823093;29;20070;-80
2021/08/10 10:36:34;;;;;;;12.95;3.33;;;34.80;85.70;;;;;;4823041;29;20526;-78
2021/08/10 10:39:01;;;;;;;8.43;3.40;;;34.80;84.90;;;;;;4824821;29;20400;-80
2021/08/10 10:41:32;;;;;;;4.63;3.42;;;34.90;86.10;;;;;;4822246;29;20441;-78
2021/08/10 10:43:58;;;;;;;6.55;2.95;;;34.80;85.60;;;;;;4822008;29;20395;-79
2021/08/10 10:46:34;;;;;;;5.80;3.17;;;34.70;86.80;;;;;;4821815;29;20054;-79
2021/08/10 10:49:01;;;;;;;9.48;2.95;;;34.60;86.90;;;;;;4821906;29;20031;-80
2021/08/10 10:51:31;;;;;;;9.40;2.90;;;34.70;87.00;;;;;;4822933;29;20041;-81
2021/08/10 10:54:22;;;;;;;5.32;2.72;;;34.70;87.50;;;;;;4823103;29;20079;-81
2021/08/10 10:56:48;;;;;;;8.15;2.97;;;34.60;86.40;;;;;;4823440;29;20047;-80
2021/08/10 10:59:24;;;;;;;6.55;2.70;;;34.60;86.90;;;;;;4823845;29;20042;-80
2021/08/10 11:02:13;;;;;;;9.90;2.72;;;34.50;86.40;;;;;;4823932;29;20526;-80
2021/08/10 11:04:59;;;;;;;9.48;3.17;;;34.40;87.10;;;;;;4818220;29;20046;-79
2021/08/10 11:07:35;;;;;;;11.10;3.33;;;34.30;86.10;;;;;;4823795;29;20473;-80
2021/08/10 11:10:01;;;;;;;9.32;2.80;;;34.10;86.90;;;;;;4825477;29;20042;-79
2021/08/10 11:12:43;;;;;;;12.05;3.08;;;34.10;85.50;;;;;;4827281;29;20046;-78
2021/08/10 11:15:14;;;;;;;7.45;2.70;;;34.10;86.50;;;;;;4825823;29;20066;-79
2021/08/10 11:17:40;;;;;;;4.93;2.55;;;34.10;86.20;;;;;;4826930;29;20377;-79
2021/08/10 11:20:23;;;;;;;10.07;2.97;;;34.10;85.90;;;;;;4827169;29;20051;-79
2021/08/10 11:22:49;;;;;;;5.90;2.85;;;34.10;87.40;;;;;;4826899;29;20046;-79
2021/08/10 11:25:26;;;;;;;6.00;2.78;;;34.20;86.90;;;;;;4826907;29;20026;-80
2021/08/10 11:27:51;;;;;;;10.32;2.42;;;34.30;87.20;;;;;;4826729;29;20103;-80
2021/08/10 11:30:20;;;;;;;12.73;2.70;;;34.20;87.20;;;;;;4826841;29;20043;-80
2021/08/10 11:32:50;;;;;;;13.77;2.70;;;34.10;86.70;;;;;;4825548;29;20042;-78
2021/08/10 11:35:28;;;;;;;8.90;2.70;;;33.80;85.70;;;;;;4825552;29;20035;-80
2021/08/10 11:38:19;;;;;;;7.53;3.08;;;33.70;87.50;;;;;;4826822;29;20049;-78
2021/08/10 11:40:52;;;;;;;9.55;2.88;;;33.50;88.10;;;;;;4826419;29;20038;-80
2021/08/10 11:43:20;;;;;;;6.40;2.53;;;33.50;87.80;;;;;;4826852;29;20377;-79
2021/08/10 11:45:46;;;;;;;8.13;2.45;;;33.50;88.20;;;;;;4826566;29;20042;-79
2021/08/10 11:48:11;;;;;;;8.10;3.10;;;33.60;88.20;;;;;;4826573;29;20061;-80
2021/08/10 11:50:37;;;;;;;11.18;2.85;;;33.60;86.60;;;;;;4826374;29;20030;-80
2021/08/10 11:53:03;;;;;;;8.00;2.97;;;33.60;85.90;;;;;;4826494;29;20062;-80
2021/08/10 11:55:34;;;;;;;9.95;2.63;;;33.60;85.50;;;;;;4826602;29;20499;-79
2021/08/10 11:58:02;;;;;;;8.18;2.47;;;33.60;84.70;;;;;;4826340;29;20034;-80
2021/08/10 12:00:30;;;;;;;8.43;2.78;;;33.60;85.50;;;;;;4826156;29;20054;-78
2021/08/10 12:02:56;;;;;;;22.00;3.53;;;33.60;86.40;;;;;;4826453;29;20039;-81
2021/08/10 12:05:22;;;;;;;17.05;2.50;;;33.70;85.90;;;;;;4826148;29;20107;-79
2021/08/10 12:07:51;;;;;;;12.70;3.75;;;33.90;84.00;;;;;;4826285;29;20034;-80
2021/08/10 12:10:45;;;;;;;12.20;2.72;;;34.10;83.20;;;;;;4826228;29;20061;-80
2021/08/10 12:13:22;;;;;;;12.70;3.13;;;34.30;82.60;;;;;;4824964;29;20062;-80
2021/08/10 12:15:50;;;;;;;8.90;2.30;;;34.40;83.10;;;;;;4826191;29;20403;-81
2021/08/10 12:18:18;;;;;;;6.18;2.63;;;34.50;82.50;;;;;;4826261;29;20034;-80
2021/08/10 12:21:10;;;;;;;5.65;2.83;;;34.60;82.50;;;;;;4825212;29;20035;-80
2021/08/10 12:23:44;;;;;;;8.55;2.63;;;34.50;82.40;;;;;;4824194;29;20030;-80
2021/08/10 12:26:16;;;;;;;9.05;2.58;;;34.40;82.80;;;;;;4825990;29;20070;-80
2021/08/10 12:28:58;;;;;;;;;;;34.40;82.10;;;;;;4826471;29;20042;-80
2021/08/10 12:31:24;;;;;;;15.75;2.53;;;34.50;81.60;;;;;;4826037;29;19916;-81
2021/08/10 12:33:52;;;;;;;10.30;2.58;;;34.40;81.60;;;;;;4826077;29;20038;-80
2021/08/10 12:36:17;;;;;;;9.75;2.65;;;34.40;80.50;;;;;;4825616;29;20125;-81
2021/08/10 12:38:45;;;;;;;10.68;2.30;;;34.40;79.70;;;;;;4826101;29;20437;-80
2021/08/10 12:41:11;;;;;;;9.43;2.38;;;34.40;80.40;;;;;;4825851;29;20031;-80
2021/08/10 12:43:38;;;;;;;7.32;2.55;;;34.40;80.20;;;;;;4825734;29;20034;-80
2021/08/10 12:46:29;;;;;;;4.13;2.40;;;34.40;80.20;;;;;;4825786;29;20087;-80
2021/08/10 12:49:01;;;;;;;9.32;2.60;;;34.40;81.30;;;;;;4825554;29;20034;-79
2021/08/10 12:51:45;;;;;;;23.27;3.20;;;34.20;82.40;;;;;;4825379;29;20053;-78